Time;durP1;ratioP1;P1;durP2;ratioP2;P2;SDS_P1;SDS_P2;PMS_P1;PMS_P2;Temp;Humidity;BMP_temperature;BMP_pressure;BME280_temperature;BME280_humidity;BME280_pressure;Samples;Min_cycle;Max_cycle;Signal;HPM_P1;HPM_P2
2023/09/16 00:02:38;;;;;;;7.40;3.50;;;14.30;1.00;;;;;;10228399;29;20223;-79
2023/09/16 00:08:19;;;;;;;6.57;3.50;;;14.20;1.00;;;;;;10236091;29;20291;-76
2023/09/16 00:13:41;;;;;;;4.10;2.97;;;14.20;1.00;;;;;;10233693;29;20202;-75
2023/09/16 00:19:03;;;;;;;3.67;2.17;;;14.10;1.00;;;;;;10236915;29;20421;-78
2023/09/16 00:24:24;;;;;;;3.17;2.05;;;14.10;1.00;;;;;;10233650;29;20446;-78
2023/09/16 00:29:46;;;;;;;4.70;2.20;;;14.00;1.00;;;;;;10248889;29;20572;-79
2023/09/16 00:35:08;;;;;;;2.75;1.98;;;14.10;1.00;;;;;;10235269;29;20491;-78
2023/09/16 00:40:31;;;;;;;3.30;1.70;;;14.00;1.00;;;;;;10197068;29;20625;-77
2023/09/16 00:45:52;;;;;;;4.13;2.20;;;14.00;1.00;;;;;;10182303;29;20205;-79
2023/09/16 00:51:14;;;;;;;4.53;2.58;;;13.90;1.00;;;;;;10207880;29;20224;-79
2023/09/16 00:56:36;;;;;;;3.08;1.88;;;13.80;1.00;;;;;;10234972;29;20414;-78
2023/09/16 01:01:57;;;;;;;2.58;1.90;;;13.70;1.00;;;;;;10248199;29;20224;-78
2023/09/16 01:07:19;;;;;;;5.70;2.05;;;13.70;1.00;;;;;;10230172;28;20319;-77
2023/09/16 01:12:42;;;;;;;4.05;2.33;;;13.60;1.00;;;;;;10209257;29;20193;-79
2023/09/16 01:18:06;;;;;;;3.78;2.30;;;13.60;1.00;;;;;;10204788;29;20402;-79
2023/09/16 01:23:27;;;;;;;2.72;2.10;;;13.50;1.00;;;;;;10212615;29;20559;-79
2023/09/16 01:28:49;;;;;;;2.70;1.80;;;13.50;1.00;;;;;;10246082;29;20232;-78
2023/09/16 01:34:32;;;;;;;2.65;1.83;;;13.40;1.00;;;;;;10236969;29;20193;-79
2023/09/16 01:39:57;;;;;;;3.20;2.05;;;13.60;1.00;;;;;;10234032;29;20225;-78
2023/09/16 01:45:18;;;;;;;4.97;2.28;;;13.60;1.00;;;;;;10252119;29;20520;-79
2023/09/16 01:50:40;;;;;;;3.47;1.80;;;13.60;1.00;;;;;;10272891;29;20203;-77
2023/09/16 01:56:01;;;;;;;2.65;2.20;;;13.50;1.00;;;;;;10271225;29;20537;-77
2023/09/16 02:01:23;;;;;;;6.15;3.13;;;13.60;1.00;;;;;;10242915;29;20225;-78
2023/09/16 02:06:46;;;;;;;6.38;3.95;;;13.50;1.00;;;;;;10243680;29;20241;-78
2023/09/16 02:12:08;;;;;;;10.23;5.57;;;13.50;1.00;;;;;;10253773;29;20551;-77
2023/09/16 02:17:30;;;;;;;8.25;5.50;;;13.40;1.00;;;;;;10240424;29;20206;-78
2023/09/16 02:29:10;;;;;;;11.82;6.20;;;13.10;1.00;;;;;;10249857;29;20516;-78
2023/09/16 02:34:35;;;;;;;9.15;5.43;;;13.00;1.00;;;;;;10240255;29;20484;-79
2023/09/16 02:39:56;;;;;;;9.65;5.63;;;13.00;1.00;;;;;;10240512;29;20237;-78
2023/09/16 02:45:18;;;;;;;9.13;5.07;;;12.90;1.00;;;;;;10223944;29;20206;-78
2023/09/16 02:50:39;;;;;;;8.57;5.20;;;12.80;1.00;;;;;;10226095;29;20209;-77
2023/09/16 02:56:01;;;;;;;9.65;5.43;;;12.70;1.00;;;;;;10225771;29;20508;-79
2023/09/16 03:01:22;;;;;;;9.15;5.68;;;12.60;1.00;;;;;;10269090;29;20228;-77
2023/09/16 03:06:43;;;;;;;8.15;4.80;;;12.50;1.00;;;;;;10279438;28;20253;-79
2023/09/16 03:12:05;;;;;;;8.15;3.83;;;12.60;1.00;;;;;;10235520;29;20201;-79
2023/09/16 03:17:26;;;;;;;5.63;3.65;;;12.70;1.00;;;;;;10220635;29;20238;-79
2023/09/16 03:22:48;;;;;;;5.82;3.10;;;12.70;1.00;;;;;;10238197;29;20313;-79
2023/09/16 03:28:09;;;;;;;5.00;3.20;;;12.70;1.00;;;;;;10237568;29;20430;-77
2023/09/16 03:33:32;;;;;;;9.13;3.50;;;12.60;1.00;;;;;;10246283;29;20209;-78
2023/09/16 03:38:55;;;;;;;5.10;3.00;;;12.60;1.00;;;;;;10237752;29;20217;-78
2023/09/16 03:44:18;;;;;;;4.60;3.40;;;12.60;1.00;;;;;;10236392;29;20209;-77
2023/09/16 03:49:39;;;;;;;5.50;3.15;;;12.50;1.00;;;;;;10250433;29;20219;-77
2023/09/16 03:55:02;;;;;;;7.25;4.40;;;12.60;1.00;;;;;;10236810;29;20253;-77
2023/09/16 04:00:23;;;;;;;5.57;3.72;;;12.50;1.00;;;;;;10237223;29;20315;-79
2023/09/16 04:05:45;;;;;;;7.13;3.72;;;12.40;1.00;;;;;;10237519;29;20398;-77
2023/09/16 04:11:07;;;;;;;3.83;2.67;;;12.40;1.00;;;;;;10234670;29;20211;-78
2023/09/16 04:16:31;;;;;;;3.63;2.80;;;12.50;1.00;;;;;;10199411;29;20384;-78
2023/09/16 04:29:25;;;;;;;3.53;2.78;;;12.50;1.00;;;;;;10220516;29;20200;-79
2023/09/16 04:34:48;;;;;;;4.07;2.75;;;12.40;1.00;;;;;;10180755;29;20277;-79
2023/09/16 04:40:10;;;;;;;4.28;2.83;;;12.40;1.00;;;;;;10183697;29;20256;-78
2023/09/16 04:45:32;;;;;;;5.88;2.95;;;12.30;1.00;;;;;;10192977;29;20376;-79
2023/09/16 04:50:54;;;;;;;4.43;2.78;;;12.40;1.00;;;;;;10230090;29;20228;-78
2023/09/16 04:56:35;;;;;;;7.22;3.80;;;12.40;1.00;;;;;;10217194;29;20209;-78
2023/09/16 05:01:56;;;;;;;14.85;8.57;;;12.50;1.00;;;;;;10226317;29;20460;-78
2023/09/16 05:07:18;;;;;;;16.35;9.88;;;12.60;17.50;;;;;;10234359;29;20549;-78
2023/09/16 05:12:41;;;;;;;12.20;7.40;;;;;;;;;;10220536;29;20206;-78
2023/09/16 05:18:03;;;;;;;13.50;6.75;;;12.80;1.00;;;;;;10222500;29;20217;-78
2023/09/16 05:23:27;;;;;;;17.75;8.15;;;13.00;1.00;;;;;;10234272;29;20442;-79
2023/09/16 05:28:50;;;;;;;15.18;6.90;;;13.10;1.00;;;;;;10245149;29;20216;-78
2023/09/16 05:34:12;;;;;;;10.18;5.63;;;13.10;1.00;;;;;;10233639;29;20234;-77
2023/09/16 05:39:34;;;;;;;6.63;4.30;;;13.10;1.00;;;;;;10235110;29;20256;-78
2023/09/16 05:44:59;;;;;;;9.48;5.00;;;13.30;1.00;;;;;;10228015;29;20279;-78
2023/09/16 05:50:20;;;;;;;7.22;4.78;;;13.40;1.00;;;;;;10261844;29;20494;-78
2023/09/16 05:55:42;;;;;;;7.35;3.35;;;13.50;99.90;;;;;;10280940;29;20219;-79
2023/09/16 06:01:06;;;;;;;7.50;3.50;;;13.60;99.90;;;;;;10261948;29;20341;-78
2023/09/16 06:06:28;;;;;;;7.50;3.55;;;13.70;66.90;;;;;;10281389;29;20221;-78
2023/09/16 06:11:49;;;;;;;7.43;3.95;;;13.60;86.50;;;;;;10235621;29;20246;-78
2023/09/16 06:17:12;;;;;;;6.97;3.72;;;13.60;99.90;;;;;;10226286;29;20491;-78
2023/09/16 06:22:34;;;;;;;5.53;3.35;;;13.70;99.90;;;;;;10240113;29;20240;-79
2023/09/16 06:27:58;;;;;;;5.15;3.13;;;13.90;99.90;;;;;;10254577;29;20461;-79
2023/09/16 06:33:20;;;;;;;10.90;3.13;;;14.10;99.90;;;;;;10253483;29;20201;-79
2023/09/16 06:38:42;;;;;;;5.25;2.90;;;14.30;39.30;;;;;;10239112;29;20233;-76
2023/09/16 06:44:05;;;;;;;5.70;3.03;;;14.50;8.30;;;;;;10238755;29;20522;-79
2023/09/16 06:49:26;;;;;;;5.65;2.33;;;;;;;;;;10254443;29;20222;-76
2023/09/16 06:54:49;;;;;;;3.80;2.30;;;17.80;1.00;;;;;;10252546;28;20494;-76
2023/09/16 07:00:10;;;;;;;3.78;2.25;;;18.90;99.90;;;;;;10256985;29;20246;-77
2023/09/16 07:05:32;;;;;;;5.93;2.60;;;20.10;99.90;;;;;;10271971;29;20446;-79
2023/09/16 07:10:55;;;;;;;4.65;2.45;;;21.00;99.90;;;;;;10243140;29;20430;-79
2023/09/16 07:16:19;;;;;;;3.28;2.42;;;21.80;99.90;;;;;;10239461;29;20432;-78
2023/09/16 07:21:41;;;;;;;4.85;2.70;;;22.10;99.90;;;;;;10237111;29;20235;-77
2023/09/16 07:27:03;;;;;;;4.32;2.40;;;22.90;99.90;;;;;;10248686;29;20208;-79
2023/09/16 07:32:24;;;;;;;4.40;1.98;;;23.60;99.90;;;;;;10223948;29;20215;-77
2023/09/16 07:37:46;;;;;;;2.70;2.15;;;24.00;1.00;;;;;;10238744;29;20192;-78
2023/09/16 07:43:08;;;;;;;4.88;1.98;;;24.80;99.90;;;;;;10237284;29;20235;-77
2023/09/16 07:48:31;;;;;;;5.57;2.13;;;24.70;99.90;;;;;;10237585;29;20256;-79
2023/09/16 07:53:53;;;;;;;3.45;2.13;;;;;;;;;;10236966;29;20200;-77
2023/09/16 07:59:20;;;;;;;3.22;2.28;;;25.40;99.90;;;;;;10241183;29;20223;-75
2023/09/16 08:04:41;;;;;;;5.22;2.05;;;25.10;99.90;;;;;;10237489;29;20251;-79
2023/09/16 08:10:04;;;;;;;5.43;2.20;;;;;;;;;;10240730;29;20203;-79
2023/09/16 08:15:25;;;;;;;3.55;2.42;;;26.20;99.90;;;;;;10237452;28;20287;-78
2023/09/16 08:20:46;;;;;;;5.82;2.15;;;26.80;99.90;;;;;;10235735;29;20235;-78
2023/09/16 08:26:08;;;;;;;5.97;2.83;;;27.30;99.90;;;;;;10236928;29;20248;-79
2023/09/16 08:31:30;;;;;;;7.95;2.38;;;26.80;99.90;;;;;;10246436;29;20214;-79
2023/09/16 08:36:52;;;;;;;4.25;2.30;;;26.90;99.90;;;;;;10236309;29;20198;-79
2023/09/16 08:42:39;;;;;;;6.68;2.38;;;27.60;99.90;;;;;;10247159;28;20231;-78
2023/09/16 08:48:06;;;;;;;7.18;2.65;;;;;;;;;;10209380;29;20439;-78
2023/09/16 08:53:30;;;;;;;7.35;2.72;;;28.00;99.90;;;;;;10285968;28;20207;-79
2023/09/16 08:58:53;;;;;;;8.00;4.53;;;27.60;99.90;;;;;;10268093;29;20239;-78
2023/09/16 09:04:16;;;;;;;5.53;2.72;;;;;;;;;;10274863;29;20231;-78
2023/09/16 09:09:38;;;;;;;4.20;2.20;;;28.60;99.90;;;;;;10256439;28;20236;-78
2023/09/16 09:15:06;;;;;;;4.93;2.83;;;28.70;99.90;;;;;;10248955;29;20223;-78
2023/09/16 09:20:28;;;;;;;3.47;2.30;;;28.90;99.90;;;;;;10232861;29;20270;-78
2023/09/16 09:25:50;;;;;;;8.85;2.10;;;29.30;99.90;;;;;;10235142;29;20196;-79
2023/09/16 09:31:12;;;;;;;8.20;2.55;;;29.10;99.90;;;;;;10233464;29;20212;-78
2023/09/16 09:36:35;;;;;;;4.07;2.25;;;29.00;99.90;;;;;;10246895;29;20202;-78
2023/09/16 09:41:56;;;;;;;4.25;2.65;;;28.50;99.90;;;;;;10246218;29;20267;-78
2023/09/16 09:47:18;;;;;;;3.63;3.00;;;29.10;99.90;;;;;;10234539;29;20196;-77
2023/09/16 09:52:52;;;;;;;3.70;2.60;;;29.00;99.90;;;;;;10247252;28;20217;-79
2023/09/16 09:58:13;;;;;;;3.88;2.88;;;28.90;99.90;;;;;;10234638;29;20219;-78
2023/09/16 10:03:35;;;;;;;7.15;3.55;;;29.50;99.90;;;;;;10266686;29;20508;-78
2023/09/16 10:08:57;;;;;;;3.70;1.80;;;30.30;99.90;;;;;;10255311;29;20273;-78
2023/09/16 10:14:19;;;;;;;4.30;2.00;;;29.50;99.90;;;;;;10246468;29;20631;-79
2023/09/16 10:19:42;;;;;;;2.70;1.90;;;30.10;99.90;;;;;;10232864;29;20756;-78
2023/09/16 10:25:05;;;;;;;4.70;2.30;;;30.10;99.90;;;;;;10196191;29;20467;-79
2023/09/16 10:30:30;;;;;;;4.00;2.10;;;29.80;99.90;;;;;;10209044;29;20210;-78
2023/09/16 10:35:52;;;;;;;3.83;2.08;;;;;;;;;;10241017;29;20218;-79
2023/09/16 10:41:17;;;;;;;5.75;2.38;;;31.10;91.20;;;;;;10251401;29;20257;-78
2023/09/16 10:46:39;;;;;;;2.50;2.05;;;30.50;99.90;;;;;;10239872;29;20247;-78
2023/09/16 10:52:08;;;;;;;2.85;2.50;;;30.90;99.50;;;;;;10254382;29;20200;-78
2023/09/16 10:57:39;;;;;;;6.13;2.53;;;30.70;99.50;;;;;;10280342;29;20199;-78
2023/09/16 11:03:03;;;;;;;3.05;2.20;;;30.70;98.40;;;;;;10273145;29;20227;-78
2023/09/16 11:08:25;;;;;;;7.22;2.50;;;30.50;97.50;;;;;;10265763;29;20411;-78
2023/09/16 11:13:47;;;;;;;3.20;2.30;;;31.10;97.40;;;;;;10252242;29;20263;-78
2023/09/16 11:19:08;;;;;;;3.53;2.30;;;31.00;96.80;;;;;;10238470;29;20206;-78
2023/09/16 11:24:34;;;;;;;5.32;2.55;;;30.90;95.70;;;;;;10237114;29;20282;-77
2023/09/16 11:29:55;;;;;;;3.22;2.30;;;30.70;95.50;;;;;;10250908;29;20192;-77
2023/09/16 11:35:17;;;;;;;10.43;2.92;;;30.70;94.30;;;;;;10199796;29;20197;-78
2023/09/16 11:40:38;;;;;;;3.22;2.30;;;30.80;94.60;;;;;;10218976;29;20491;-77
2023/09/16 11:46:01;;;;;;;2.85;2.20;;;31.00;94.60;;;;;;10238507;29;20570;-76
2023/09/16 11:51:25;;;;;;;3.63;2.35;;;31.40;95.80;;;;;;10259271;29;20203;-78
2023/09/16 11:56:46;;;;;;;3.88;2.25;;;31.20;94.20;;;;;;10278114;29;20197;-77
2023/09/16 12:02:10;;;;;;;5.03;2.33;;;31.00;93.10;;;;;;10271631;29;20246;-76
2023/09/16 12:07:34;;;;;;;8.05;3.05;;;31.30;93.40;;;;;;10271814;28;20239;-77
2023/09/16 12:12:56;;;;;;;6.00;2.20;;;31.50;92.70;;;;;;10247489;29;20208;-77
2023/09/16 12:18:18;;;;;;;5.22;2.85;;;30.70;99.90;;;;;;10236480;29;20200;-77
2023/09/16 12:23:43;;;;;;;5.80;2.67;;;30.20;90.50;;;;;;10233426;29;20461;-77
2023/09/16 12:29:05;;;;;;;6.50;2.60;;;29.70;90.60;;;;;;10251529;29;20505;-77
2023/09/16 12:34:26;;;;;;;5.22;2.58;;;29.80;90.70;;;;;;10247712;28;20208;-77
2023/09/16 12:39:48;;;;;;;5.07;2.50;;;29.50;90.40;;;;;;10251324;29;20294;-77
2023/09/16 12:45:09;;;;;;;5.65;2.70;;;29.60;89.10;;;;;;10235505;29;20219;-77
2023/09/16 12:50:32;;;;;;;2.40;2.05;;;29.00;88.10;;;;;;10251063;29;20279;-78
2023/09/16 12:55:54;;;;;;;6.15;2.83;;;29.20;90.40;;;;;;10283603;28;20254;-77
2023/09/16 13:01:19;;;;;;;3.83;2.17;;;29.40;88.50;;;;;;10269733;29;20298;-77
2023/09/16 13:06:41;;;;;;;3.55;2.47;;;29.10;88.50;;;;;;10273892;29;20237;-78
2023/09/16 13:12:03;;;;;;;4.07;2.50;;;28.90;87.80;;;;;;10233375;29;20200;-79
2023/09/16 13:17:24;;;;;;;4.15;2.72;;;29.00;89.00;;;;;;10242762;29;20192;-78
2023/09/16 13:22:53;;;;;;;6.80;3.00;;;28.60;86.90;;;;;;10233725;29;20267;-79
2023/09/16 13:28:17;;;;;;;6.53;3.40;;;28.40;88.40;;;;;;10234838;29;20207;-78
2023/09/16 13:33:42;;;;;;;4.25;2.47;;;28.40;88.50;;;;;;10217165;29;20204;-78
2023/09/16 13:39:04;;;;;;;4.95;2.70;;;28.10;87.00;;;;;;10234872;29;20482;-78
2023/09/16 13:44:25;;;;;;;3.33;2.42;;;27.80;87.30;;;;;;10234106;29;20212;-79
2023/09/16 13:49:47;;;;;;;5.88;2.50;;;27.30;85.80;;;;;;10234938;29;20202;-79
2023/09/16 13:55:08;;;;;;;4.90;2.65;;;27.00;86.80;;;;;;10265117;28;20230;-78
2023/09/16 14:00:30;;;;;;;6.50;2.67;;;26.50;86.60;;;;;;10274349;28;20226;-78
2023/09/16 14:05:52;;;;;;;3.85;2.95;;;;;;;;;;10275300;29;20231;-78
2023/09/16 14:11:13;;;;;;;12.95;3.20;;;26.00;99.90;;;;;;10254919;28;20501;-78
2023/09/16 14:16:34;;;;;;;4.22;2.90;;;25.70;1.00;;;;;;10241138;29;20215;-78
2023/09/16 14:21:56;;;;;;;4.68;2.63;;;;;;;;;;10238995;29;20486;-78
2023/09/16 14:27:18;;;;;;;2.60;2.28;;;25.00;1.00;;;;;;10241613;29;20203;-79
2023/09/16 14:32:39;;;;;;;6.25;3.85;;;24.80;99.90;;;;;;10240590;29;20369;-78
2023/09/16 14:38:04;;;;;;;5.20;3.40;;;24.60;1.00;;;;;;10240087;29;20489;-78
2023/09/16 14:43:26;;;;;;;7.05;2.95;;;24.50;94.00;;;;;;10240264;29;20266;-78
2023/09/16 14:48:47;;;;;;;5.18;3.42;;;24.40;91.70;;;;;;10242428;29;20276;-78
2023/09/16 14:54:09;;;;;;;6.57;2.90;;;24.40;91.60;;;;;;10238496;29;20226;-78
2023/09/16 14:59:30;;;;;;;7.90;3.78;;;24.30;91.50;;;;;;10240360;29;20225;-79
2023/09/16 15:04:56;;;;;;;3.95;2.55;;;24.10;93.00;;;;;;10238356;29;20251;-79
2023/09/16 15:10:17;;;;;;;7.13;2.80;;;24.00;92.60;;;;;;10248022;28;20203;-78
2023/09/16 15:15:38;;;;;;;12.10;3.33;;;23.90;92.80;;;;;;10210779;29;20209;-78
2023/09/16 15:21:01;;;;;;;13.10;3.15;;;23.80;92.90;;;;;;10237480;29;20235;-78
2023/09/16 15:26:22;;;;;;;2.88;2.25;;;23.70;93.40;;;;;;10225054;29;20224;-77
2023/09/16 15:31:45;;;;;;;20.35;3.70;;;23.60;93.80;;;;;;10239899;29;20208;-78
2023/09/16 15:37:08;;;;;;;10.65;2.50;;;23.30;93.30;;;;;;10240351;29;20278;-79
2023/09/16 15:42:29;;;;;;;8.30;2.47;;;23.20;93.80;;;;;;10235186;29;20235;-78
2023/09/16 15:47:51;;;;;;;5.03;2.72;;;23.10;93.40;;;;;;10237548;29;20343;-77
2023/09/16 15:53:14;;;;;;;2.65;2.13;;;23.00;93.70;;;;;;10236449;29;20283;-78
2023/09/16 15:58:35;;;;;;;2.83;2.17;;;22.90;94.40;;;;;;10238058;29;20196;-78
2023/09/16 16:03:56;;;;;;;4.25;2.75;;;22.90;95.30;;;;;;10236559;29;20349;-77
2023/09/16 16:09:18;;;;;;;5.72;2.50;;;22.80;95.00;;;;;;10248917;29;20254;-77
2023/09/16 16:14:39;;;;;;;5.57;2.72;;;22.70;94.90;;;;;;10237614;29;20206;-77
2023/09/16 16:20:01;;;;;;;4.03;2.65;;;22.50;95.10;;;;;;10235392;29;20210;-79
2023/09/16 16:25:24;;;;;;;5.47;2.63;;;22.40;99.90;;;;;;10199703;29;20219;-78
2023/09/16 16:30:45;;;;;;;6.40;2.70;;;22.30;99.90;;;;;;10235364;29;20204;-79
2023/09/16 16:36:07;;;;;;;6.60;3.40;;;22.10;97.10;;;;;;10236662;29;20199;-78
2023/09/16 16:41:28;;;;;;;7.03;4.28;;;21.90;97.70;;;;;;10234501;29;20227;-79
2023/09/16 16:46:50;;;;;;;4.15;3.13;;;21.90;98.10;;;;;;10222021;29;20206;-77
2023/09/16 16:52:13;;;;;;;3.33;2.70;;;21.70;99.90;;;;;;10207137;29;20208;-78
2023/09/16 16:57:35;;;;;;;13.93;5.97;;;21.60;98.50;;;;;;10235944;29;20188;-78
2023/09/16 17:02:57;;;;;;;13.40;4.60;;;21.40;99.50;;;;;;10233902;29;20228;-77
2023/09/16 17:08:19;;;;;;;17.23;5.22;;;21.30;99.90;;;;;;10223757;29;20252;-78
2023/09/16 17:13:42;;;;;;;6.40;3.85;;;21.20;99.90;;;;;;10246941;29;20246;-78
2023/09/16 17:19:05;;;;;;;12.60;5.35;;;20.90;99.90;;;;;;10234503;29;20196;-78
2023/09/16 17:24:26;;;;;;;12.07;7.03;;;20.80;99.90;;;;;;10220305;29;20255;-77
2023/09/16 17:29:48;;;;;;;8.65;5.05;;;20.60;99.90;;;;;;10233610;29;20223;-78
2023/09/16 17:35:10;;;;;;;8.70;4.03;;;20.40;99.90;;;;;;10230467;29;20204;-77
2023/09/16 17:40:32;;;;;;;9.85;4.07;;;20.40;99.90;;;;;;10219008;29;20262;-77
2023/09/16 17:45:54;;;;;;;11.40;5.10;;;20.20;99.90;;;;;;10180907;29;20200;-78
2023/09/16 17:51:15;;;;;;;18.80;9.98;;;20.20;99.90;;;;;;10216039;29;20207;-77
2023/09/16 17:56:37;;;;;;;18.10;11.75;;;20.10;99.90;;;;;;10233538;29;20208;-77
2023/09/16 18:01:59;;;;;;;15.15;9.55;;;20.00;99.90;;;;;;10233246;29;20241;-78
2023/09/16 18:07:20;;;;;;;12.65;7.28;;;19.80;99.90;;;;;;10232785;29;20781;-78
2023/09/16 18:12:42;;;;;;;12.63;6.55;;;19.80;99.90;;;;;;10231990;29;20218;-77
2023/09/16 18:18:05;;;;;;;10.07;6.40;;;19.80;99.90;;;;;;10232659;29;20239;-77
2023/09/16 18:23:28;;;;;;;12.25;7.35;;;19.60;99.90;;;;;;10231609;29;20226;-77
2023/09/16 18:28:49;;;;;;;8.57;5.97;;;19.50;99.90;;;;;;10233064;29;20218;-78
2023/09/16 18:34:12;;;;;;;9.05;5.55;;;19.50;99.90;;;;;;10232689;29;20234;-78
2023/09/16 18:39:33;;;;;;;6.72;5.22;;;19.40;99.90;;;;;;10232333;29;20219;-78
2023/09/16 18:44:55;;;;;;;7.22;5.15;;;19.20;99.90;;;;;;10232471;29;20227;-78
2023/09/16 18:50:16;;;;;;;7.22;4.47;;;19.20;99.90;;;;;;10237738;29;20191;-77
2023/09/16 18:55:43;;;;;;;9.05;5.65;;;19.10;99.90;;;;;;10253944;29;20472;-78
2023/09/16 19:01:05;;;;;;;28.38;19.83;;;19.10;99.90;;;;;;10238171;29;20233;-78
2023/09/16 19:06:27;;;;;;;16.55;11.60;;;19.00;99.90;;;;;;10239132;29;20231;-78
2023/09/16 19:11:48;;;;;;;12.65;7.47;;;18.90;99.90;;;;;;10229589;29;20242;-78
2023/09/16 19:17:10;;;;;;;7.63;4.93;;;18.80;99.90;;;;;;10239580;29;20521;-78
2023/09/16 19:22:32;;;;;;;7.05;4.80;;;;;;;;;;10237057;29;20227;-78
2023/09/16 19:27:53;;;;;;;7.43;5.18;;;18.70;99.90;;;;;;10239253;29;20385;-77
2023/09/16 19:33:15;;;;;;;6.80;4.95;;;18.50;99.90;;;;;;10238355;29;20286;-78
2023/09/16 19:38:37;;;;;;;7.38;5.40;;;18.50;99.90;;;;;;10238200;29;20196;-78
2023/09/16 19:44:01;;;;;;;8.45;5.72;;;18.30;99.90;;;;;;10237818;29;20254;-77
2023/09/16 19:49:25;;;;;;;11.07;8.50;;;18.70;1.00;;;;;;10238670;29;20384;-78
2023/09/16 19:54:47;;;;;;;14.25;9.40;;;18.30;1.00;;;;;;10237113;29;20539;-78
2023/09/16 20:00:09;;;;;;;10.80;7.05;;;18.20;1.00;;;;;;10203632;29;20284;-78
2023/09/16 20:05:37;;;;;;;8.95;6.55;;;18.10;1.00;;;;;;10236188;29;20420;-77
2023/09/16 20:10:58;;;;;;;9.50;5.85;;;18.00;99.90;;;;;;10257429;29;20215;-78
2023/09/16 20:16:20;;;;;;;7.10;5.45;;;17.80;99.90;;;;;;10237670;29;20195;-78
2023/09/16 20:21:41;;;;;;;9.45;5.50;;;17.70;99.90;;;;;;10236476;29;20428;-77
2023/09/16 20:27:02;;;;;;;10.40;5.75;;;17.70;99.90;;;;;;10237122;29;20302;-78
2023/09/16 20:32:24;;;;;;;12.00;5.97;;;17.50;99.90;;;;;;10224280;29;20540;-78
2023/09/16 20:37:48;;;;;;;9.63;6.50;;;17.40;99.90;;;;;;10235910;29;20374;-78
2023/09/16 20:43:09;;;;;;;11.48;5.93;;;17.40;99.90;;;;;;10212243;29;20287;-78
2023/09/16 20:48:31;;;;;;;9.13;5.80;;;17.50;1.00;;;;;;10235716;29;20441;-78
2023/09/16 20:53:52;;;;;;;9.52;6.10;;;17.20;99.90;;;;;;10235448;29;20239;-77
2023/09/16 20:59:16;;;;;;;9.20;5.57;;;17.20;99.90;;;;;;10236133;29;20504;-78
2023/09/16 21:04:38;;;;;;;10.45;5.90;;;17.10;99.90;;;;;;10235039;29;20251;-78
2023/09/16 21:10:01;;;;;;;12.30;6.00;;;17.00;99.90;;;;;;10235477;29;20200;-78
2023/09/16 21:15:23;;;;;;;9.65;6.78;;;17.00;99.90;;;;;;10249612;29;20219;-78
2023/09/16 21:20:44;;;;;;;11.40;7.30;;;16.90;99.90;;;;;;10234344;29;20199;-78
2023/09/16 21:26:06;;;;;;;10.25;6.95;;;16.80;99.90;;;;;;10219652;29;20263;-78
2023/09/16 21:31:28;;;;;;;12.93;7.93;;;16.90;1.00;;;;;;10234263;29;20231;-78
2023/09/16 21:36:49;;;;;;;14.25;8.95;;;16.90;1.00;;;;;;10235252;29;20493;-78
2023/09/16 21:42:13;;;;;;;19.23;11.90;;;16.80;1.00;;;;;;10233767;29;20259;-78
2023/09/16 21:47:36;;;;;;;15.65;10.95;;;16.80;1.00;;;;;;10234985;29;20195;-78
2023/09/16 21:52:57;;;;;;;12.10;7.40;;;16.60;1.00;;;;;;10233740;29;20241;-78
2023/09/16 21:58:19;;;;;;;9.57;7.32;;;16.60;1.00;;;;;;10233632;29;20239;-78
2023/09/16 22:03:41;;;;;;;9.80;6.35;;;16.50;1.00;;;;;;10230679;29;20266;-78
2023/09/16 22:09:03;;;;;;;12.73;6.75;;;16.40;1.00;;;;;;10233293;29;20459;-78
2023/09/16 22:14:25;;;;;;;9.35;6.03;;;16.50;1.00;;;;;;10233696;29;20287;-78
2023/09/16 22:19:47;;;;;;;10.60;7.00;;;16.50;1.00;;;;;;10234266;29;20196;-78
2023/09/16 22:25:09;;;;;;;9.80;6.25;;;16.50;1.00;;;;;;10237737;29;20231;-78
2023/09/16 22:30:31;;;;;;;10.38;5.97;;;16.50;1.00;;;;;;10240683;29;20199;-78
2023/09/16 22:35:53;;;;;;;10.73;6.55;;;16.30;1.00;;;;;;10239382;29;20394;-78
2023/09/16 22:41:14;;;;;;;7.32;5.68;;;16.30;1.00;;;;;;10239848;29;20278;-78
2023/09/16 22:46:36;;;;;;;7.10;5.63;;;16.30;1.00;;;;;;10240084;29;20220;-78
2023/09/16 22:51:57;;;;;;;9.88;5.78;;;16.30;1.00;;;;;;10239048;29;20277;-78
2023/09/16 22:57:19;;;;;;;7.38;5.13;;;16.20;1.00;;;;;;10255569;29;20482;-77
2023/09/16 23:02:41;;;;;;;6.80;4.65;;;16.20;1.00;;;;;;10240944;29;20259;-78
2023/09/16 23:08:03;;;;;;;7.43;5.15;;;16.20;1.00;;;;;;10238584;29;20207;-78
2023/09/16 23:13:24;;;;;;;11.65;6.70;;;16.10;1.00;;;;;;10224985;29;20398;-77
2023/09/16 23:18:48;;;;;;;6.82;5.45;;;16.10;1.00;;;;;;10238816;29;20402;-77
2023/09/16 23:24:10;;;;;;;11.27;7.10;;;16.20;1.00;;;;;;10237039;29;20234;-78
2023/09/16 23:29:31;;;;;;;10.15;6.78;;;16.20;1.00;;;;;;10239287;29;20195;-78
2023/09/16 23:34:53;;;;;;;11.50;7.82;;;16.10;1.00;;;;;;10235844;29;20214;-78
2023/09/16 23:40:14;;;;;;;9.57;6.18;;;16.10;1.00;;;;;;10238042;29;20191;-78
2023/09/16 23:45:36;;;;;;;7.47;5.22;;;16.10;1.00;;;;;;10238770;29;20274;-77
2023/09/16 23:50:58;;;;;;;6.93;5.28;;;16.10;1.00;;;;;;10236454;29;20200;-78
2023/09/16 23:56:19;;;;;;;5.25;3.80;;;16.10;1.00;;;;;;10238416;29;20206;-78
